createdAt,value
2019-01-13T00:00:55.648Z,3.50
2019-01-13T00:02:57.297Z,3.47
2019-01-13T00:04:58.932Z,3.20
2019-01-13T00:07:00.816Z,3.20
2019-01-13T00:09:05.327Z,2.90
2019-01-13T00:11:06.966Z,3.80
2019-01-13T00:13:08.608Z,2.67
2019-01-13T00:15:10.247Z,3.30
2019-01-13T00:17:11.896Z,2.50
2019-01-13T00:19:13.767Z,3.10
2019-01-13T00:21:15.408Z,2.70
2019-01-13T00:23:17.288Z,3.00
2019-01-13T00:25:18.924Z,2.70
2019-01-13T00:27:20.572Z,3.57
2019-01-13T00:29:22.212Z,3.77
2019-01-13T00:31:23.856Z,3.00
2019-01-13T00:33:25.499Z,3.07
2019-01-13T00:35:27.147Z,2.67
2019-01-13T00:37:28.779Z,3.23
2019-01-13T00:39:30.485Z,3.30
2019-01-13T00:41:33.837Z,2.90
2019-01-13T00:43:35.635Z,2.80
2019-01-13T00:45:37.275Z,3.80
2019-01-13T00:47:38.940Z,2.80
2019-01-13T00:49:40.584Z,3.33
2019-01-13T00:51:42.228Z,2.40
2019-01-13T00:53:44.120Z,2.70
2019-01-13T00:55:45.988Z,3.10
2019-01-13T00:57:47.647Z,2.73
2019-01-13T00:59:49.300Z,3.00
2019-01-13T01:01:51.146Z,3.20
2019-01-13T01:03:53.264Z,3.10
2019-01-13T01:05:55.140Z,3.00
2019-01-13T01:07:56.787Z,3.10
2019-01-13T01:09:58.423Z,3.27
2019-01-13T01:12:00.159Z,3.40
2019-01-13T01:14:01.806Z,3.50
2019-01-13T01:16:03.685Z,4.00
2019-01-13T01:18:05.339Z,3.77
2019-01-13T01:20:08.615Z,3.67
2019-01-13T01:22:10.259Z,4.70
2019-01-13T01:24:12.139Z,5.07
2019-01-13T01:26:14.012Z,3.80
2019-01-13T01:28:15.657Z,5.33
2019-01-13T01:30:18.067Z,4.03
2019-01-13T01:32:19.705Z,4.07
2019-01-13T01:34:21.588Z,3.77
2019-01-13T01:36:23.227Z,4.10
2019-01-13T01:38:25.112Z,4.20
2019-01-13T01:40:26.760Z,3.33
2019-01-13T01:42:28.648Z,4.20
2019-01-13T01:44:30.308Z,4.20
2019-01-13T01:46:31.948Z,3.40
2019-01-13T01:48:33.596Z,3.50
2019-01-13T01:50:35.463Z,3.43
2019-01-13T01:52:37.343Z,4.30
2019-01-13T01:54:38.991Z,3.60
2019-01-13T01:56:40.627Z,3.73
2019-01-13T01:58:42.292Z,3.00
2019-01-13T02:00:43.932Z,3.23
2019-01-13T02:02:45.583Z,3.90
2019-01-13T02:04:47.228Z,3.50
2019-01-13T02:06:48.863Z,3.77
2019-01-13T02:08:50.503Z,4.00
2019-01-13T02:10:52.140Z,3.60
2019-01-13T02:12:54.195Z,3.63
2019-01-13T02:14:55.843Z,4.30
2019-01-13T02:16:57.491Z,4.87
2019-01-13T02:18:59.140Z,3.50
2019-01-13T02:21:00.780Z,3.90
2019-01-13T02:23:02.656Z,4.10
2019-01-13T02:25:05.555Z,3.67
2019-01-13T02:27:07.283Z,3.80
2019-01-13T02:29:08.936Z,5.37
2019-01-13T02:31:10.572Z,3.70
2019-01-13T02:33:12.212Z,3.50
2019-01-13T02:35:13.859Z,4.00
2019-01-13T02:37:15.496Z,4.40
2019-01-13T02:39:17.147Z,4.00
2019-01-13T02:41:19.028Z,4.17
2019-01-13T02:43:20.928Z,4.00
2019-01-13T02:45:26.807Z,4.13
2019-01-13T02:47:28.447Z,4.33
2019-01-13T02:49:30.091Z,5.63
2019-01-13T02:51:31.736Z,4.17
2019-01-13T02:53:33.372Z,4.00
2019-01-13T02:55:35.491Z,3.87
2019-01-13T02:57:37.417Z,4.53
2019-01-13T02:59:39.078Z,5.10
2019-01-13T03:01:40.719Z,4.30
2019-01-13T03:03:42.353Z,4.30
2019-01-13T03:05:44.243Z,5.50
2019-01-13T03:07:46.114Z,5.00
2019-01-13T03:09:47.758Z,5.10
2019-01-13T03:11:49.454Z,4.40
2019-01-13T03:13:51.089Z,4.67
2019-01-13T03:15:52.732Z,5.33
2019-01-13T03:17:54.368Z,5.00
2019-01-13T03:19:56.252Z,4.00
2019-01-13T03:21:57.889Z,5.10
2019-01-13T03:23:59.529Z,5.00
2019-01-13T03:26:01.359Z,4.47
2019-01-13T03:28:02.996Z,6.07
2019-01-13T03:30:07.021Z,4.73
2019-01-13T03:32:08.673Z,4.60
2019-01-13T03:34:10.334Z,4.30
2019-01-13T03:36:11.976Z,5.47
2019-01-13T03:38:13.644Z,4.30
2019-01-13T03:40:17.272Z,4.90
2019-01-13T03:42:18.925Z,4.43
2019-01-13T03:44:20.565Z,5.47
2019-01-13T03:46:22.211Z,4.80
2019-01-13T03:48:23.852Z,5.40
2019-01-13T03:50:25.543Z,5.87
2019-01-13T03:52:27.185Z,4.83
2019-01-13T03:54:28.829Z,5.20
2019-01-13T03:56:30.483Z,4.60
2019-01-13T03:58:32.371Z,4.70
2019-01-13T04:00:34.255Z,4.50
2019-01-13T04:02:35.899Z,5.27
2019-01-13T04:04:37.528Z,6.00
2019-01-13T04:06:39.175Z,4.20
2019-01-13T04:08:40.815Z,4.90
2019-01-13T04:10:42.496Z,5.20
2019-01-13T04:12:44.395Z,5.10
2019-01-13T04:14:46.031Z,5.40
2019-01-13T04:16:47.739Z,5.60
2019-01-13T04:18:49.376Z,6.53
2019-01-13T04:20:51.015Z,5.20
2019-01-13T04:22:52.663Z,5.87
2019-01-13T04:24:54.302Z,5.17
2019-01-13T04:26:56.187Z,5.00
2019-01-13T04:28:57.834Z,5.13
2019-01-13T04:30:59.735Z,5.23
2019-01-13T04:33:01.415Z,4.77
2019-01-13T04:35:03.900Z,4.90
2019-01-13T04:37:05.547Z,5.23
2019-01-13T04:39:07.683Z,4.90
2019-01-13T04:41:09.571Z,5.00
2019-01-13T04:43:11.216Z,5.60
2019-01-13T04:45:12.891Z,4.97
2019-01-13T04:47:14.843Z,4.40
2019-01-13T04:49:16.477Z,4.57
2019-01-13T04:51:18.115Z,4.80
2019-01-13T04:53:19.756Z,4.70
2019-01-13T04:55:21.395Z,3.60
2019-01-13T04:57:23.035Z,3.90
2019-01-13T04:59:24.684Z,4.20
2019-01-13T05:01:34.096Z,3.73
2019-01-13T05:03:29.864Z,4.07
2019-01-13T05:05:31.503Z,4.40
2019-01-13T05:07:33.384Z,3.67
2019-01-13T05:09:35.013Z,3.97
2019-01-13T05:11:36.745Z,5.10
2019-01-13T05:13:38.675Z,4.20
2019-01-13T05:15:40.315Z,4.30
2019-01-13T05:17:41.973Z,3.80
2019-01-13T05:19:43.601Z,4.30
2019-01-13T05:21:45.257Z,4.00
2019-01-13T05:23:46.987Z,4.53
2019-01-13T05:25:48.620Z,3.83
2019-01-13T05:27:50.271Z,4.03
2019-01-13T05:29:51.912Z,4.40
2019-01-13T05:31:53.559Z,4.50
2019-01-13T05:33:55.201Z,4.10
2019-01-13T05:35:56.843Z,5.00
2019-01-13T05:37:58.727Z,4.23
2019-01-13T05:40:00.403Z,4.27
2019-01-13T05:42:02.112Z,5.23
2019-01-13T05:44:03.983Z,4.67
2019-01-13T05:46:05.626Z,5.00
2019-01-13T05:48:07.267Z,3.70
2019-01-13T05:50:10.647Z,4.60
2019-01-13T05:52:12.288Z,5.23
2019-01-13T05:54:13.928Z,6.73
2019-01-13T05:56:15.568Z,5.90
2019-01-13T05:58:17.696Z,6.23
2019-01-13T06:00:21.611Z,7.30
2019-01-13T06:02:23.276Z,6.73
2019-01-13T06:04:24.916Z,7.23
2019-01-13T06:06:26.551Z,7.27
2019-01-13T06:08:28.199Z,7.10
2019-01-13T06:10:29.836Z,7.10
2019-01-13T06:12:31.500Z,7.70
2019-01-13T06:14:33.372Z,7.20
2019-01-13T06:16:35.253Z,6.23
2019-01-13T06:18:36.895Z,7.77
2019-01-13T06:20:38.540Z,7.50
2019-01-13T06:22:40.203Z,7.40
2019-01-13T06:24:41.855Z,7.13
2019-01-13T06:26:43.535Z,8.83
2019-01-13T06:28:45.176Z,7.30
2019-01-13T06:30:46.815Z,8.40
2019-01-13T06:32:48.460Z,8.10
2019-01-13T06:34:50.100Z,8.27
2019-01-13T06:36:51.740Z,8.30
2019-01-13T06:38:53.427Z,8.10
2019-01-13T06:40:55.067Z,8.53
2019-01-13T06:42:56.724Z,9.67
2019-01-13T06:44:58.365Z,9.40
2019-01-13T06:47:00.007Z,9.63
2019-01-13T06:49:01.860Z,10.70
2019-01-13T06:51:03.501Z,8.30
2019-01-13T06:53:05.139Z,9.47
2019-01-13T06:55:06.816Z,9.73
2019-01-13T06:57:08.455Z,9.40
2019-01-13T06:59:10.108Z,8.33
2019-01-13T07:01:11.752Z,11.40
2019-01-13T07:03:13.592Z,10.60
2019-01-13T07:05:15.479Z,10.67
2019-01-13T07:07:17.119Z,10.73
2019-01-13T07:09:19.006Z,9.90
2019-01-13T07:11:20.639Z,7.87
2019-01-13T07:13:22.280Z,7.50
2019-01-13T07:15:23.929Z,10.87
2019-01-13T07:17:25.568Z,10.83
2019-01-13T07:19:27.218Z,9.07
2019-01-13T07:21:28.852Z,8.30
2019-01-13T07:23:30.583Z,10.00
2019-01-13T07:25:32.236Z,6.03
2019-01-13T07:27:33.872Z,7.73
2019-01-13T07:29:35.759Z,7.07
2019-01-13T07:31:37.391Z,8.53
2019-01-13T07:33:39.234Z,7.47
2019-01-13T07:35:40.847Z,6.23
2019-01-13T07:37:42.488Z,6.40
2019-01-13T07:39:44.143Z,9.37
2019-01-13T07:41:45.776Z,7.10
2019-01-13T07:43:47.411Z,7.50
2019-01-13T07:45:49.059Z,4.83
2019-01-13T07:47:50.708Z,6.37
2019-01-13T07:49:52.352Z,7.10
2019-01-13T07:51:53.992Z,5.53
2019-01-13T07:53:55.639Z,6.07
2019-01-13T07:55:57.281Z,5.87
2019-01-13T07:57:58.971Z,5.80
2019-01-13T08:00:00.640Z,5.70
2019-01-13T08:02:02.282Z,4.90
2019-01-13T08:04:03.938Z,4.67
2019-01-13T08:06:05.572Z,4.57
2019-01-13T08:08:07.214Z,4.07
2019-01-13T08:10:10.552Z,5.37
2019-01-13T08:12:12.188Z,5.20
2019-01-13T08:14:14.092Z,4.70
2019-01-13T08:16:15.751Z,4.30
2019-01-13T08:18:17.384Z,4.93
2019-01-13T08:20:23.597Z,4.70
2019-01-13T08:22:25.476Z,4.37
2019-01-13T08:24:27.152Z,3.93
2019-01-13T08:26:28.792Z,5.33
2019-01-13T08:28:30.431Z,4.23
2019-01-13T08:30:32.084Z,4.60
2019-01-13T08:32:33.728Z,4.80
2019-01-13T08:34:35.364Z,3.70
2019-01-13T08:36:37.012Z,3.30
2019-01-13T08:38:38.652Z,2.77
2019-01-13T08:40:40.299Z,3.20
2019-01-13T08:42:41.936Z,3.40
2019-01-13T08:44:43.576Z,4.20
2019-01-13T08:46:45.465Z,3.10
2019-01-13T08:48:47.342Z,3.30
2019-01-13T08:50:49.228Z,2.57
2019-01-13T08:52:50.866Z,3.47
2019-01-13T08:54:52.504Z,2.60
2019-01-13T08:56:54.152Z,2.40
2019-01-13T08:58:55.792Z,2.37
2019-01-13T09:00:57.448Z,2.57
2019-01-13T09:02:59.093Z,2.67
2019-01-13T09:05:00.732Z,3.30
2019-01-13T09:07:02.472Z,3.40
2019-01-13T09:09:06.908Z,1.70
2019-01-13T09:11:08.551Z,2.30
2019-01-13T09:13:10.203Z,3.97
2019-01-13T09:15:14.456Z,2.40
2019-01-13T09:17:16.153Z,2.70
2019-01-13T09:19:17.845Z,2.97
2019-01-13T09:21:19.552Z,3.27
2019-01-13T09:23:21.432Z,4.40
2019-01-13T09:25:23.071Z,2.70
2019-01-13T09:27:24.723Z,3.53
2019-01-13T09:29:26.600Z,2.70
2019-01-13T09:31:28.248Z,2.57
2019-01-13T09:33:29.885Z,3.73
2019-01-13T09:35:31.560Z,3.27
2019-01-13T09:37:33.431Z,3.40
2019-01-13T09:39:35.068Z,3.40
2019-01-13T09:41:36.715Z,3.40
2019-01-13T09:43:38.365Z,2.57
2019-01-13T09:45:40.016Z,2.87
2019-01-13T09:47:41.650Z,3.13
2019-01-13T09:49:49.752Z,3.03
2019-01-13T09:51:46.829Z,3.27
2019-01-13T09:53:48.460Z,3.33
2019-01-13T09:55:50.528Z,3.00
2019-01-13T09:57:52.260Z,3.33
2019-01-13T09:59:54.003Z,3.53
2019-01-13T10:01:55.648Z,3.73
2019-01-13T10:03:57.304Z,3.30
2019-01-13T10:05:58.955Z,3.30
2019-01-13T10:08:00.595Z,2.97
2019-01-13T10:10:02.292Z,3.20
2019-01-13T10:12:03.936Z,3.13
2019-01-13T10:14:05.576Z,2.67
2019-01-13T10:16:07.228Z,2.70
2019-01-13T10:18:08.868Z,3.47
2019-01-13T10:20:11.503Z,3.27
2019-01-13T10:22:13.144Z,3.00
2019-01-13T10:24:15.024Z,3.40
2019-01-13T10:26:16.675Z,2.80
2019-01-13T10:28:18.311Z,2.93
2019-01-13T10:30:22.356Z,2.93
2019-01-13T10:32:24.004Z,3.50
2019-01-13T10:34:25.641Z,2.67
2019-01-13T10:36:27.524Z,2.67
2019-01-13T10:38:29.155Z,2.60
2019-01-13T10:40:30.827Z,2.70
2019-01-13T10:42:32.472Z,2.30
2019-01-13T10:44:34.107Z,2.20
2019-01-13T10:46:35.999Z,2.17
2019-01-13T10:48:37.636Z,2.03
2019-01-13T10:50:39.271Z,2.50
2019-01-13T10:52:40.916Z,2.17
2019-01-13T10:54:42.543Z,2.60
2019-01-13T10:56:44.423Z,2.43
2019-01-13T10:58:46.307Z,2.47
2019-01-13T11:00:47.944Z,2.07
2019-01-13T11:02:49.592Z,2.63
2019-01-13T11:04:51.228Z,2.57
2019-01-13T11:06:52.872Z,2.30
2019-01-13T11:08:54.508Z,2.13
2019-01-13T11:10:56.156Z,1.93
2019-01-13T11:12:57.799Z,2.33
2019-01-13T11:14:59.427Z,2.00
2019-01-13T11:17:01.068Z,2.50
2019-01-13T11:19:02.963Z,1.83
2019-01-13T11:21:04.587Z,1.90
2019-01-13T11:23:06.430Z,2.00
2019-01-13T11:25:08.736Z,2.10
2019-01-13T11:27:10.380Z,2.00
2019-01-13T11:29:12.012Z,2.00
2019-01-13T11:31:13.647Z,2.43
2019-01-13T11:33:15.289Z,2.17
2019-01-13T11:35:16.928Z,2.30
2019-01-13T11:37:18.576Z,1.40
2019-01-13T11:39:20.220Z,2.13
2019-01-13T11:41:21.868Z,1.80
2019-01-13T11:43:23.754Z,2.07
2019-01-13T11:45:25.625Z,2.20
2019-01-13T11:47:27.276Z,2.33
2019-01-13T11:49:28.911Z,1.90
2019-01-13T11:51:30.782Z,1.93
2019-01-13T11:53:32.435Z,1.80
2019-01-13T11:55:34.091Z,2.00
2019-01-13T11:57:35.746Z,2.30
2019-01-13T11:59:37.388Z,2.13
2019-01-13T12:01:39.028Z,1.80
2019-01-13T12:03:40.677Z,1.80
2019-01-13T12:05:42.336Z,1.97
2019-01-13T12:07:44.356Z,2.17
2019-01-13T12:09:46.006Z,2.10
2019-01-13T12:11:47.640Z,1.53
2019-01-13T12:13:49.301Z,1.87
2019-01-13T12:15:50.932Z,1.60
2019-01-13T12:17:52.575Z,1.90
2019-01-13T12:19:54.449Z,1.43
2019-01-13T12:21:56.330Z,2.17
2019-01-13T12:23:58.204Z,2.10
2019-01-13T12:25:59.835Z,1.87
2019-01-13T12:28:01.486Z,2.70
2019-01-13T12:30:05.319Z,2.27
2019-01-13T12:32:06.953Z,1.90
2019-01-13T12:34:08.832Z,1.90
2019-01-13T12:36:10.479Z,2.20
2019-01-13T12:38:12.372Z,1.83
2019-01-13T12:40:15.697Z,1.80
2019-01-13T12:42:17.327Z,1.80
2019-01-13T12:44:18.972Z,2.00
2019-01-13T12:46:20.607Z,1.60
2019-01-13T12:48:22.514Z,1.87
2019-01-13T12:50:26.091Z,1.67
2019-01-13T12:52:27.727Z,1.47
2019-01-13T12:54:29.382Z,1.93
2019-01-13T12:56:31.256Z,1.40
2019-01-13T12:58:32.927Z,1.40
2019-01-13T13:00:34.816Z,1.87
2019-01-13T13:02:36.464Z,1.67
2019-01-13T13:04:38.105Z,1.47
2019-01-13T13:06:39.739Z,1.70
2019-01-13T13:08:41.384Z,1.90
2019-01-13T13:10:45.416Z,1.60
2019-01-13T13:12:47.052Z,1.60
2019-01-13T13:14:48.696Z,1.63
2019-01-13T13:16:50.328Z,1.93
2019-01-13T13:18:52.199Z,1.60
2019-01-13T13:20:53.836Z,1.70
2019-01-13T13:22:55.467Z,1.77
2019-01-13T13:24:57.116Z,1.40
2019-01-13T13:26:58.747Z,1.70
2019-01-13T13:29:00.872Z,1.80
2019-01-13T13:31:02.514Z,1.60
2019-01-13T13:33:04.280Z,1.70
2019-01-13T13:35:05.920Z,1.80
2019-01-13T13:37:07.800Z,1.90
2019-01-13T13:39:09.448Z,1.83
2019-01-13T13:41:11.083Z,2.10
2019-01-13T13:43:12.720Z,2.10
2019-01-13T13:45:14.351Z,1.73
2019-01-13T13:47:15.986Z,1.73
2019-01-13T13:49:17.874Z,1.90
2019-01-13T13:51:19.509Z,1.80
2019-01-13T13:53:21.408Z,2.10
2019-01-13T13:55:23.067Z,2.00
2019-01-13T13:57:24.711Z,2.03
2019-01-13T13:59:26.371Z,1.70
2019-01-13T14:01:28.008Z,1.83
2019-01-13T14:03:29.648Z,2.40
2019-01-13T14:05:31.299Z,1.93
2019-01-13T14:07:32.954Z,1.80
2019-01-13T14:09:34.781Z,2.03
2019-01-13T14:11:37.772Z,2.10
2019-01-13T14:13:39.455Z,1.97
2019-01-13T14:15:41.114Z,1.90
2019-01-13T14:17:42.755Z,2.20
2019-01-13T14:19:44.391Z,1.50
2019-01-13T14:21:46.036Z,2.33
2019-01-13T14:23:47.674Z,1.70
2019-01-13T14:25:49.333Z,1.93
2019-01-13T14:27:50.959Z,2.00
2019-01-13T14:29:52.605Z,1.83
2019-01-13T14:31:54.256Z,1.87
2019-01-13T14:33:55.887Z,2.03
2019-01-13T14:35:57.532Z,2.20
2019-01-13T14:37:59.176Z,1.80
2019-01-13T14:40:00.807Z,1.87
2019-01-13T14:42:02.455Z,1.77
2019-01-13T14:44:07.162Z,2.10
2019-01-13T14:46:08.816Z,1.90
2019-01-13T14:48:10.448Z,1.83
2019-01-13T14:50:15.154Z,1.70
2019-01-13T14:52:16.936Z,1.60
2019-01-13T14:54:18.812Z,1.67
2019-01-13T14:56:20.456Z,2.70
2019-01-13T14:58:22.096Z,3.83
2019-01-13T15:00:25.792Z,2.37
2019-01-13T15:02:27.431Z,2.50
2019-01-13T15:04:29.071Z,3.13
2019-01-13T15:06:31.504Z,4.03
2019-01-13T15:08:33.172Z,2.90
2019-01-13T15:10:34.825Z,2.90
2019-01-13T15:12:38.032Z,3.43
2019-01-13T15:14:39.792Z,2.37
2019-01-13T15:16:41.440Z,4.50
2019-01-13T15:18:43.076Z,2.57
2019-01-13T15:20:44.951Z,3.00
2019-01-13T15:22:46.728Z,3.47
2019-01-13T15:24:48.368Z,2.90
2019-01-13T15:26:50.008Z,1.90
2019-01-13T15:28:51.643Z,2.43
2019-01-13T15:30:53.287Z,2.60
2019-01-13T15:32:54.924Z,1.90
2019-01-13T15:34:56.567Z,1.83
2019-01-13T15:36:58.216Z,2.60
2019-01-13T15:38:59.851Z,2.50
2019-01-13T15:41:01.740Z,2.10
2019-01-13T15:43:03.897Z,1.80
2019-01-13T15:45:06.116Z,2.87
2019-01-13T15:47:07.763Z,2.00
2019-01-13T15:49:09.411Z,1.60
2019-01-13T15:51:11.056Z,2.00
2019-01-13T15:53:12.698Z,1.80
2019-01-13T15:55:14.460Z,1.80
2019-01-13T15:57:16.186Z,1.80
2019-01-13T15:59:17.832Z,2.37
2019-01-13T16:01:19.480Z,2.03
2019-01-13T16:03:21.118Z,5.90
2019-01-13T16:05:22.748Z,5.13
2019-01-13T16:07:24.405Z,2.87
2019-01-13T16:09:26.043Z,2.90
2019-01-13T16:11:27.692Z,2.87
2019-01-13T16:13:29.331Z,2.43
2019-01-13T16:15:34.506Z,2.70
2019-01-13T16:17:34.520Z,2.60
2019-01-13T16:19:36.159Z,2.20
2019-01-13T16:21:37.804Z,3.40
2019-01-13T16:23:39.448Z,2.10
2019-01-13T16:25:41.076Z,2.80
2019-01-13T16:27:42.724Z,2.33
2019-01-13T16:29:44.365Z,2.63
2019-01-13T16:31:46.007Z,3.00
2019-01-13T16:33:47.896Z,3.30
2019-01-13T16:35:49.523Z,2.87
2019-01-13T16:37:51.166Z,3.47
2019-01-13T16:39:52.796Z,3.10
2019-01-13T16:41:54.456Z,2.83
2019-01-13T16:43:56.339Z,2.10
2019-01-13T16:45:58.235Z,2.60
2019-01-13T16:47:59.883Z,2.30
2019-01-13T16:50:01.635Z,2.20
2019-01-13T16:52:03.377Z,1.93
2019-01-13T16:54:05.012Z,3.07
2019-01-13T16:56:06.645Z,2.40
2019-01-13T16:58:08.292Z,2.77
2019-01-13T17:00:13.247Z,2.23
2019-01-13T17:02:14.891Z,2.53
2019-01-13T17:04:16.528Z,2.20
2019-01-13T17:06:18.175Z,2.70
2019-01-13T17:08:19.824Z,2.50
2019-01-13T17:10:22.908Z,2.60
2019-01-13T17:12:24.555Z,3.00
2019-01-13T17:14:26.202Z,2.67
2019-01-13T17:16:27.835Z,3.03
2019-01-13T17:18:29.475Z,2.70
2019-01-13T17:20:31.123Z,2.33
2019-01-13T17:22:32.767Z,2.20
2019-01-13T17:24:34.426Z,3.17
2019-01-13T17:26:36.064Z,3.13
2019-01-13T17:28:37.703Z,2.87
2019-01-13T17:30:39.346Z,2.73
2019-01-13T17:32:40.988Z,2.70
2019-01-13T17:34:42.627Z,3.67
2019-01-13T17:36:44.264Z,3.30
2019-01-13T17:38:45.924Z,3.80
2019-01-13T17:40:47.556Z,3.27
2019-01-13T17:42:49.263Z,3.40
2019-01-13T17:44:50.911Z,3.80
2019-01-13T17:46:52.787Z,3.20
2019-01-13T17:48:54.436Z,3.10
2019-01-13T17:50:56.308Z,3.80
2019-01-13T17:52:57.947Z,3.47
2019-01-13T17:54:59.627Z,3.37
2019-01-13T17:57:01.261Z,3.50
2019-01-13T17:59:02.923Z,3.63
2019-01-13T18:01:22.156Z,3.43
2019-01-13T18:03:36.901Z,3.73
2019-01-13T18:05:38.535Z,3.60
2019-01-13T18:07:40.184Z,4.50
2019-01-13T18:09:41.832Z,3.33
2019-01-13T18:11:43.469Z,4.63
2019-01-13T18:13:45.288Z,3.80
2019-01-13T18:15:46.923Z,7.53
2019-01-13T18:17:48.564Z,12.03
2019-01-13T18:19:50.440Z,6.50
2019-01-13T18:21:52.076Z,8.30
2019-01-13T18:23:53.722Z,4.70
2019-01-13T18:25:55.358Z,7.00
2019-01-13T18:27:57.319Z,7.40
2019-01-13T18:29:58.976Z,5.53
2019-01-13T18:32:00.612Z,6.20
2019-01-13T18:34:02.255Z,8.83
2019-01-13T18:36:03.892Z,5.50
2019-01-13T18:38:05.536Z,6.13
2019-01-13T18:40:09.579Z,5.43
2019-01-13T18:42:11.451Z,8.60
2019-01-13T18:44:13.099Z,7.60
2019-01-13T18:46:14.740Z,6.90
2019-01-13T18:48:16.375Z,6.33
2019-01-13T18:50:18.151Z,6.40
2019-01-13T18:52:19.792Z,4.07
2019-01-13T18:54:21.675Z,5.43
2019-01-13T18:56:23.309Z,7.90
2019-01-13T18:58:25.284Z,7.20
2019-01-13T19:00:26.943Z,9.80
2019-01-13T19:02:28.588Z,6.27
2019-01-13T19:04:30.275Z,4.07
2019-01-13T19:06:31.916Z,5.60
2019-01-13T19:08:33.555Z,5.40
2019-01-13T19:10:39.744Z,4.53
2019-01-13T19:12:41.456Z,6.83
2019-01-13T19:14:49.102Z,4.70
2019-01-13T19:17:05.796Z,5.43
2019-01-13T19:19:07.924Z,5.60
2019-01-13T19:21:09.567Z,5.27
2019-01-13T19:23:14.140Z,5.00
2019-01-13T19:25:41.588Z,4.70
2019-01-13T19:27:43.237Z,6.40
2019-01-13T19:29:45.120Z,4.73
2019-01-13T19:31:47.016Z,5.03
2019-01-13T19:33:48.640Z,5.20
2019-01-13T19:35:50.288Z,4.53
2019-01-13T19:37:51.929Z,6.10
2019-01-13T19:39:53.576Z,5.37
2019-01-13T19:41:55.215Z,6.00
2019-01-13T19:43:56.859Z,4.37
2019-01-13T19:45:58.734Z,5.20
2019-01-13T19:48:00.378Z,6.97
2019-01-13T19:50:03.274Z,5.13
2019-01-13T19:52:04.939Z,5.23
2019-01-13T19:54:06.584Z,5.20
2019-01-13T19:56:08.227Z,5.93
2019-01-13T19:58:09.892Z,4.13
2019-01-13T20:00:14.792Z,4.77
2019-01-13T20:02:16.435Z,4.20
2019-01-13T20:04:18.078Z,4.77
2019-01-13T20:06:19.724Z,4.70
2019-01-13T20:08:21.368Z,5.50
2019-01-13T20:10:23.227Z,5.90
2019-01-13T20:12:25.107Z,4.10
2019-01-13T20:14:26.756Z,4.40
2019-01-13T20:16:28.409Z,4.80
2019-01-13T20:18:30.287Z,5.03
2019-01-13T20:20:31.965Z,4.87
2019-01-13T20:22:33.624Z,4.60
2019-01-13T20:24:35.267Z,4.60
2019-01-13T20:26:36.939Z,4.70
2019-01-13T20:28:38.816Z,5.03
2019-01-13T20:30:40.455Z,5.37
2019-01-13T20:32:42.107Z,4.40
2019-01-13T20:34:43.747Z,5.33
2019-01-13T20:36:45.399Z,5.13
2019-01-13T20:38:47.279Z,5.20
2019-01-13T20:40:48.924Z,4.97
2019-01-13T20:42:50.560Z,5.47
2019-01-13T20:44:52.440Z,4.97
2019-01-13T20:46:54.087Z,4.50
2019-01-13T20:48:55.731Z,4.20
2019-01-13T20:50:57.615Z,4.90
2019-01-13T20:52:59.564Z,4.43
2019-01-13T20:55:01.272Z,4.43
2019-01-13T20:57:02.948Z,5.30
2019-01-13T20:59:04.595Z,5.00
2019-01-13T21:01:06.236Z,5.37
2019-01-13T21:03:08.107Z,5.20
2019-01-13T21:05:09.744Z,5.17
2019-01-13T21:07:11.395Z,4.43
2019-01-13T21:09:13.268Z,3.90
2019-01-13T21:11:15.159Z,3.87
2019-01-13T21:13:16.811Z,4.37
2019-01-13T21:15:21.189Z,4.10
2019-01-13T21:17:22.835Z,4.83
2019-01-13T21:19:24.480Z,5.90
2019-01-13T21:21:26.123Z,5.90
2019-01-13T21:23:27.768Z,3.87
2019-01-13T21:25:29.411Z,4.27
2019-01-13T21:27:31.159Z,5.50
2019-01-13T21:29:32.816Z,4.73
2019-01-13T21:31:34.459Z,5.40
2019-01-13T21:33:36.107Z,4.60
2019-01-13T21:35:37.748Z,4.40
2019-01-13T21:37:39.636Z,4.13
2019-01-13T21:39:41.271Z,5.37
2019-01-13T21:41:42.912Z,3.20
2019-01-13T21:43:44.560Z,4.63
2019-01-13T21:45:46.439Z,3.70
2019-01-13T21:47:48.083Z,4.17
2019-01-13T21:49:49.727Z,4.87
2019-01-13T21:51:51.372Z,4.93
2019-01-13T21:53:53.019Z,4.83
2019-01-13T21:55:54.657Z,5.07
2019-01-13T21:57:56.305Z,4.60
2019-01-13T21:59:57.956Z,4.83
2019-01-13T22:01:59.828Z,5.30
2019-01-13T22:04:01.716Z,4.77
2019-01-13T22:06:03.485Z,4.03
2019-01-13T22:08:05.467Z,4.00
2019-01-13T22:10:09.319Z,4.53
2019-01-13T22:12:11.195Z,3.50
2019-01-13T22:14:13.071Z,3.30
2019-01-13T22:16:14.952Z,3.70
2019-01-13T22:18:16.612Z,3.57
2019-01-13T22:20:19.643Z,4.10
2019-01-13T22:22:21.280Z,3.87
2019-01-13T22:24:22.919Z,3.50
2019-01-13T22:26:24.556Z,4.63
2019-01-13T22:28:26.311Z,4.40
2019-01-13T22:30:27.953Z,4.03
2019-01-13T22:32:29.591Z,4.03
2019-01-13T22:34:31.485Z,3.93
2019-01-13T22:36:33.362Z,4.53
2019-01-13T22:38:35.008Z,4.57
2019-01-13T22:40:36.652Z,4.20
2019-01-13T22:42:38.307Z,4.80
2019-01-13T22:44:39.959Z,4.00
2019-01-13T22:46:41.611Z,4.80
2019-01-13T22:48:43.255Z,4.87
2019-01-13T22:50:44.894Z,4.30
2019-01-13T22:52:46.547Z,4.30
2019-01-13T22:54:48.191Z,4.13
2019-01-13T22:56:49.836Z,4.77
2019-01-13T22:58:51.716Z,3.73
2019-01-13T23:01:22.945Z,4.43
2019-01-13T23:03:24.586Z,4.30
2019-01-13T23:05:26.235Z,3.90
2019-01-13T23:07:27.876Z,3.60
2019-01-13T23:09:29.528Z,4.50
2019-01-13T23:11:31.164Z,4.20
2019-01-13T23:13:33.295Z,4.07
2019-01-13T23:15:34.923Z,4.30
2019-01-13T23:17:36.560Z,4.63
2019-01-13T23:19:38.216Z,3.30
2019-01-13T23:21:39.855Z,4.30
2019-01-13T23:23:41.779Z,3.97
2019-01-13T23:25:43.417Z,4.60
2019-01-13T23:27:45.055Z,4.07
2019-01-13T23:29:46.707Z,4.47
2019-01-13T23:31:48.348Z,4.00
2019-01-13T23:33:49.998Z,3.30
2019-01-13T23:35:51.647Z,3.93
2019-01-13T23:37:53.281Z,4.70
2019-01-13T23:39:54.936Z,3.90
2019-01-13T23:41:56.578Z,4.13
2019-01-13T23:43:58.215Z,4.40
2019-01-13T23:45:59.860Z,3.67
2019-01-13T23:48:01.500Z,4.03
2019-01-13T23:50:04.299Z,4.33
2019-01-13T23:52:05.931Z,3.70
2019-01-13T23:54:07.571Z,4.43
2019-01-13T23:56:09.219Z,3.97
2019-01-13T23:58:10.860Z,3.50
